sensor_id;sensor_type;location;lat;lon;timestamp;temperature;humidity
26583;DHT22;14230;45.382;10.998;2023-04-03T00:01:08;10.90;99.90
26583;DHT22;14230;45.382;10.998;2023-04-03T00:03:37;10.80;99.90
26583;DHT22;14230;45.382;10.998;2023-04-03T00:06:04;10.80;99.90
26583;DHT22;14230;45.382;10.998;2023-04-03T00:08:38;10.80;99.90
26583;DHT22;14230;45.382;10.998;2023-04-03T00:11:08;10.80;99.90
26583;DHT22;14230;45.382;10.998;2023-04-03T00:13:35;10.80;99.90
26583;DHT22;14230;45.382;10.998;2023-04-03T00:16:03;10.80;99.90
26583;DHT22;14230;45.382;10.998;2023-04-03T00:18:31;10.80;99.90
26583;DHT22;14230;45.382;10.998;2023-04-03T00:20:59;10.80;99.90
26583;DHT22;14230;45.382;10.998;2023-04-03T00:23:29;10.80;99.90
26583;DHT22;14230;45.382;10.998;2023-04-03T00:25:59;10.90;99.90
26583;DHT22;14230;45.382;10.998;2023-04-03T00:28:29;10.80;99.90
26583;DHT22;14230;45.382;10.998;2023-04-03T00:30:57;10.70;99.90
26583;DHT22;14230;45.382;10.998;2023-04-03T00:33:25;10.70;99.90
26583;DHT22;14230;45.382;10.998;2023-04-03T00:35:53;10.70;99.90
26583;DHT22;14230;45.382;10.998;2023-04-03T00:38:20;10.70;99.90
26583;DHT22;14230;45.382;10.998;2023-04-03T00:40:49;10.60;99.90
26583;DHT22;14230;45.382;10.998;2023-04-03T00:43:20;10.60;99.90
26583;DHT22;14230;45.382;10.998;2023-04-03T00:45:54;10.70;99.90
26583;DHT22;14230;45.382;10.998;2023-04-03T00:50:59;10.70;99.90
26583;DHT22;14230;45.382;10.998;2023-04-03T00:53:35;10.70;99.90
26583;DHT22;14230;45.382;10.998;2023-04-03T00:56:10;10.80;99.90
26583;DHT22;14230;45.382;10.998;2023-04-03T00:58:47;10.80;99.90
26583;DHT22;14230;45.382;10.998;2023-04-03T01:01:21;10.70;99.90
26583;DHT22;14230;45.382;10.998;2023-04-03T01:03:50;10.80;99.90
26583;DHT22;14230;45.382;10.998;2023-04-03T01:06:23;10.80;99.90
26583;DHT22;14230;45.382;10.998;2023-04-03T01:08:53;10.80;99.90
26583;DHT22;14230;45.382;10.998;2023-04-03T01:11:21;10.70;99.90
26583;DHT22;14230;45.382;10.998;2023-04-03T01:13:49;10.60;99.90
26583;DHT22;14230;45.382;10.998;2023-04-03T01:16:17;10.60;99.90
26583;DHT22;14230;45.382;10.998;2023-04-03T01:18:47;10.50;99.90
26583;DHT22;14230;45.382;10.998;2023-04-03T01:26:55;10.40;99.90
26583;DHT22;14230;45.382;10.998;2023-04-03T01:29:24;10.40;99.90
26583;DHT22;14230;45.382;10.998;2023-04-03T01:31:57;10.30;99.90
26583;DHT22;14230;45.382;10.998;2023-04-03T01:34:25;10.30;99.90
26583;DHT22;14230;45.382;10.998;2023-04-03T01:36:53;10.30;99.90
26583;DHT22;14230;45.382;10.998;2023-04-03T01:39:22;10.40;99.90
26583;DHT22;14230;45.382;10.998;2023-04-03T01:41:50;10.50;99.90
26583;DHT22;14230;45.382;10.998;2023-04-03T01:44:23;10.60;99.90
26583;DHT22;14230;45.382;10.998;2023-04-03T01:46:51;10.60;99.90
26583;DHT22;14230;45.382;10.998;2023-04-03T01:49:20;10.50;99.90
26583;DHT22;14230;45.382;10.998;2023-04-03T01:51:48;10.40;99.90
26583;DHT22;14230;45.382;10.998;2023-04-03T01:54:15;10.30;99.90
26583;DHT22;14230;45.382;10.998;2023-04-03T01:56:43;10.20;99.90
26583;DHT22;14230;45.382;10.998;2023-04-03T01:59:11;10.10;99.90
26583;DHT22;14230;45.382;10.998;2023-04-03T02:01:38;10.00;99.90
26583;DHT22;14230;45.382;10.998;2023-04-03T02:04:06;10.00;99.90
26583;DHT22;14230;45.382;10.998;2023-04-03T02:06:34;10.00;99.90
26583;DHT22;14230;45.382;10.998;2023-04-03T02:09:02;9.90;99.90
26583;DHT22;14230;45.382;10.998;2023-04-03T02:11:30;9.90;99.90
26583;DHT22;14230;45.382;10.998;2023-04-03T02:13:58;9.90;99.90
26583;DHT22;14230;45.382;10.998;2023-04-03T02:16:25;9.80;99.90
26583;DHT22;14230;45.382;10.998;2023-04-03T02:18:53;9.80;99.90
26583;DHT22;14230;45.382;10.998;2023-04-03T02:21:21;9.80;99.90
26583;DHT22;14230;45.382;10.998;2023-04-03T02:23:48;9.80;99.90
26583;DHT22;14230;45.382;10.998;2023-04-03T02:26:17;9.80;99.90
26583;DHT22;14230;45.382;10.998;2023-04-03T02:28:45;9.80;99.90
26583;DHT22;14230;45.382;10.998;2023-04-03T02:31:13;9.80;99.90
26583;DHT22;14230;45.382;10.998;2023-04-03T02:33:43;9.80;99.90
26583;DHT22;14230;45.382;10.998;2023-04-03T02:36:13;9.80;99.90
26583;DHT22;14230;45.382;10.998;2023-04-03T02:38:50;9.80;99.90
26583;DHT22;14230;45.382;10.998;2023-04-03T02:41:18;9.80;99.90
26583;DHT22;14230;45.382;10.998;2023-04-03T02:43:46;9.90;99.90
26583;DHT22;14230;45.382;10.998;2023-04-03T02:46:15;10.00;99.90
26583;DHT22;14230;45.382;10.998;2023-04-03T02:48:43;10.00;99.90
26583;DHT22;14230;45.382;10.998;2023-04-03T02:51:10;10.00;99.90
26583;DHT22;14230;45.382;10.998;2023-04-03T02:53:38;10.00;99.90
26583;DHT22;14230;45.382;10.998;2023-04-03T02:56:11;9.90;99.90
26583;DHT22;14230;45.382;10.998;2023-04-03T02:58:38;9.90;99.90
26583;DHT22;14230;45.382;10.998;2023-04-03T03:01:08;9.80;99.90
26583;DHT22;14230;45.382;10.998;2023-04-03T03:03:35;9.70;99.90
26583;DHT22;14230;45.382;10.998;2023-04-03T03:06:08;9.50;99.90
26583;DHT22;14230;45.382;10.998;2023-04-03T03:08:37;9.50;99.90
26583;DHT22;14230;45.382;10.998;2023-04-03T03:11:04;9.40;99.90
26583;DHT22;14230;45.382;10.998;2023-04-03T03:13:32;9.30;99.90
26583;DHT22;14230;45.382;10.998;2023-04-03T03:16:00;9.30;99.90
26583;DHT22;14230;45.382;10.998;2023-04-03T03:18:29;9.30;99.90
26583;DHT22;14230;45.382;10.998;2023-04-03T03:20:58;9.30;99.90
26583;DHT22;14230;45.382;10.998;2023-04-03T03:23:27;9.40;99.90
26583;DHT22;14230;45.382;10.998;2023-04-03T03:25:56;9.50;99.90
26583;DHT22;14230;45.382;10.998;2023-04-03T03:28:24;9.40;99.90
26583;DHT22;14230;45.382;10.998;2023-04-03T03:30:52;9.40;99.90
26583;DHT22;14230;45.382;10.998;2023-04-03T03:33:20;9.40;99.90
26583;DHT22;14230;45.382;10.998;2023-04-03T03:35:48;9.40;99.90
26583;DHT22;14230;45.382;10.998;2023-04-03T03:38:15;9.30;99.90
26583;DHT22;14230;45.382;10.998;2023-04-03T03:40:43;9.30;99.90
26583;DHT22;14230;45.382;10.998;2023-04-03T03:43:10;9.20;99.90
26583;DHT22;14230;45.382;10.998;2023-04-03T03:45:38;9.20;99.90
26583;DHT22;14230;45.382;10.998;2023-04-03T03:48:05;9.20;99.90
26583;DHT22;14230;45.382;10.998;2023-04-03T03:50:33;9.30;99.90
26583;DHT22;14230;45.382;10.998;2023-04-03T03:53:01;9.40;99.90
26583;DHT22;14230;45.382;10.998;2023-04-03T03:55:28;9.50;99.90
26583;DHT22;14230;45.382;10.998;2023-04-03T03:57:57;9.60;99.90
26583;DHT22;14230;45.382;10.998;2023-04-03T04:00:25;9.70;99.90
26583;DHT22;14230;45.382;10.998;2023-04-03T04:02:55;9.90;99.90
26583;DHT22;14230;45.382;10.998;2023-04-03T04:05:26;10.00;99.90
26583;DHT22;14230;45.382;10.998;2023-04-03T04:07:54;10.20;99.90
26583;DHT22;14230;45.382;10.998;2023-04-03T04:10:23;10.10;99.90
26583;DHT22;14230;45.382;10.998;2023-04-03T04:12:51;10.00;99.90
26583;DHT22;14230;45.382;10.998;2023-04-03T04:15:22;10.00;99.90
26583;DHT22;14230;45.382;10.998;2023-04-03T04:17:50;10.00;99.90
26583;DHT22;14230;45.382;10.998;2023-04-03T04:20:18;10.00;99.90
26583;DHT22;14230;45.382;10.998;2023-04-03T04:22:46;10.10;99.90
26583;DHT22;14230;45.382;10.998;2023-04-03T04:25:14;10.00;99.90
26583;DHT22;14230;45.382;10.998;2023-04-03T04:27:42;10.10;99.90
26583;DHT22;14230;45.382;10.998;2023-04-03T04:30:10;10.20;99.90
26583;DHT22;14230;45.382;10.998;2023-04-03T04:32:38;10.10;99.90
26583;DHT22;14230;45.382;10.998;2023-04-03T04:35:05;10.10;99.90
26583;DHT22;14230;45.382;10.998;2023-04-03T04:37:36;10.00;99.90
26583;DHT22;14230;45.382;10.998;2023-04-03T04:40:04;10.00;99.90
26583;DHT22;14230;45.382;10.998;2023-04-03T04:42:32;9.90;99.90
26583;DHT22;14230;45.382;10.998;2023-04-03T04:44:59;9.90;99.90
26583;DHT22;14230;45.382;10.998;2023-04-03T04:47:28;9.90;99.90
26583;DHT22;14230;45.382;10.998;2023-04-03T04:49:57;10.00;99.90
26583;DHT22;14230;45.382;10.998;2023-04-03T04:52:25;10.10;99.90
26583;DHT22;14230;45.382;10.998;2023-04-03T04:54:52;10.00;99.90
26583;DHT22;14230;45.382;10.998;2023-04-03T04:57:20;10.00;99.90
26583;DHT22;14230;45.382;10.998;2023-04-03T04:59:47;10.10;99.90
26583;DHT22;14230;45.382;10.998;2023-04-03T05:02:15;10.10;99.90
26583;DHT22;14230;45.382;10.998;2023-04-03T05:04:44;10.10;99.90
26583;DHT22;14230;45.382;10.998;2023-04-03T05:07:18;10.10;99.90
26583;DHT22;14230;45.382;10.998;2023-04-03T05:09:46;10.20;99.90
26583;DHT22;14230;45.382;10.998;2023-04-03T05:12:16;10.20;99.90
26583;DHT22;14230;45.382;10.998;2023-04-03T05:14:51;10.30;99.90
26583;DHT22;14230;45.382;10.998;2023-04-03T05:17:19;10.30;99.90
26583;DHT22;14230;45.382;10.998;2023-04-03T05:19:50;10.40;99.90
26583;DHT22;14230;45.382;10.998;2023-04-03T05:22:20;10.50;99.90
26583;DHT22;14230;45.382;10.998;2023-04-03T05:24:49;10.60;99.90
26583;DHT22;14230;45.382;10.998;2023-04-03T05:27:18;10.70;99.90
26583;DHT22;14230;45.382;10.998;2023-04-03T05:29:52;10.70;99.90
26583;DHT22;14230;45.382;10.998;2023-04-03T05:32:22;10.80;99.90
26583;DHT22;14230;45.382;10.998;2023-04-03T05:34:57;10.90;99.90
26583;DHT22;14230;45.382;10.998;2023-04-03T05:37:27;11.00;99.90
26583;DHT22;14230;45.382;10.998;2023-04-03T05:39:56;11.10;99.90
26583;DHT22;14230;45.382;10.998;2023-04-03T05:42:24;11.20;99.90
26583;DHT22;14230;45.382;10.998;2023-04-03T05:44:51;11.40;99.90
26583;DHT22;14230;45.382;10.998;2023-04-03T05:47:19;11.40;99.90
26583;DHT22;14230;45.382;10.998;2023-04-03T05:49:46;11.50;99.90
26583;DHT22;14230;45.382;10.998;2023-04-03T05:52:36;11.60;99.90
26583;DHT22;14230;45.382;10.998;2023-04-03T05:55:05;11.60;99.90
26583;DHT22;14230;45.382;10.998;2023-04-03T05:57:34;11.70;99.90
26583;DHT22;14230;45.382;10.998;2023-04-03T06:00:08;11.80;99.90
26583;DHT22;14230;45.382;10.998;2023-04-03T06:02:45;11.80;99.90
26583;DHT22;14230;45.382;10.998;2023-04-03T06:05:18;11.90;99.90
26583;DHT22;14230;45.382;10.998;2023-04-03T06:07:46;12.10;99.90
26583;DHT22;14230;45.382;10.998;2023-04-03T06:10:14;12.10;99.90
26583;DHT22;14230;45.382;10.998;2023-04-03T06:12:42;12.20;99.90
26583;DHT22;14230;45.382;10.998;2023-04-03T06:15:09;12.30;99.90
26583;DHT22;14230;45.382;10.998;2023-04-03T06:17:38;12.50;99.90
26583;DHT22;14230;45.382;10.998;2023-04-03T06:20:08;12.90;99.90
26583;DHT22;14230;45.382;10.998;2023-04-03T06:22:36;13.80;99.90
26583;DHT22;14230;45.382;10.998;2023-04-03T06:25:04;14.60;99.90
26583;DHT22;14230;45.382;10.998;2023-04-03T06:27:32;15.10;99.90
26583;DHT22;14230;45.382;10.998;2023-04-03T06:29:59;15.10;99.90
26583;DHT22;14230;45.382;10.998;2023-04-03T06:32:27;15.20;99.90
26583;DHT22;14230;45.382;10.998;2023-04-03T06:34:55;15.90;99.90
26583;DHT22;14230;45.382;10.998;2023-04-03T06:37:24;16.50;99.90
26583;DHT22;14230;45.382;10.998;2023-04-03T06:39:59;17.00;99.90
26583;DHT22;14230;45.382;10.998;2023-04-03T06:42:27;17.20;99.90
26583;DHT22;14230;45.382;10.998;2023-04-03T06:45:01;17.40;99.90
26583;DHT22;14230;45.382;10.998;2023-04-03T06:47:28;17.50;99.90
26583;DHT22;14230;45.382;10.998;2023-04-03T06:49:56;17.30;99.90
26583;DHT22;14230;45.382;10.998;2023-04-03T06:52:25;16.90;99.90
26583;DHT22;14230;45.382;10.998;2023-04-03T06:54:52;16.30;99.90
26583;DHT22;14230;45.382;10.998;2023-04-03T06:57:24;16.20;99.90
26583;DHT22;14230;45.382;10.998;2023-04-03T06:59:52;16.40;99.90
26583;DHT22;14230;45.382;10.998;2023-04-03T07:02:19;16.60;99.90
26583;DHT22;14230;45.382;10.998;2023-04-03T07:04:48;17.10;99.90
26583;DHT22;14230;45.382;10.998;2023-04-03T07:07:15;17.90;99.90
26583;DHT22;14230;45.382;10.998;2023-04-03T07:09:44;18.60;99.90
26583;DHT22;14230;45.382;10.998;2023-04-03T07:12:13;18.70;99.90
26583;DHT22;14230;45.382;10.998;2023-04-03T07:14:42;18.80;99.90
26583;DHT22;14230;45.382;10.998;2023-04-03T07:17:10;18.60;99.90
26583;DHT22;14230;45.382;10.998;2023-04-03T07:19:37;18.80;99.90
26583;DHT22;14230;45.382;10.998;2023-04-03T07:22:04;18.60;99.90
26583;DHT22;14230;45.382;10.998;2023-04-03T07:24:32;18.00;99.90
26583;DHT22;14230;45.382;10.998;2023-04-03T07:27:00;18.20;99.90
26583;DHT22;14230;45.382;10.998;2023-04-03T07:29:28;18.50;99.90
26583;DHT22;14230;45.382;10.998;2023-04-03T07:31:56;18.50;99.90
26583;DHT22;14230;45.382;10.998;2023-04-03T07:34:24;18.90;99.90
26583;DHT22;14230;45.382;10.998;2023-04-03T07:36:51;18.60;99.90
26583;DHT22;14230;45.382;10.998;2023-04-03T07:39:19;18.60;99.90
26583;DHT22;14230;45.382;10.998;2023-04-03T07:41:46;18.60;99.90
26583;DHT22;14230;45.382;10.998;2023-04-03T07:44:14;18.20;99.90
26583;DHT22;14230;45.382;10.998;2023-04-03T07:46:42;18.50;99.90
26583;DHT22;14230;45.382;10.998;2023-04-03T07:49:09;19.20;99.90
26583;DHT22;14230;45.382;10.998;2023-04-03T07:51:37;19.20;99.90
26583;DHT22;14230;45.382;10.998;2023-04-03T07:54:04;18.80;99.90
26583;DHT22;14230;45.382;10.998;2023-04-03T07:56:32;19.30;99.90
26583;DHT22;14230;45.382;10.998;2023-04-03T07:58:59;19.40;99.90
26583;DHT22;14230;45.382;10.998;2023-04-03T08:01:26;19.80;99.90
26583;DHT22;14230;45.382;10.998;2023-04-03T08:03:54;19.60;99.90
26583;DHT22;14230;45.382;10.998;2023-04-03T08:06:22;19.70;99.90
26583;DHT22;14230;45.382;10.998;2023-04-03T08:09:09;19.60;99.90
26583;DHT22;14230;45.382;10.998;2023-04-03T08:11:39;19.30;99.90
26583;DHT22;14230;45.382;10.998;2023-04-03T08:14:07;19.70;99.90
26583;DHT22;14230;45.382;10.998;2023-04-03T08:16:34;19.60;99.90
26583;DHT22;14230;45.382;10.998;2023-04-03T08:19:02;19.20;99.90
26583;DHT22;14230;45.382;10.998;2023-04-03T08:21:33;18.60;99.90
26583;DHT22;14230;45.382;10.998;2023-04-03T08:24:00;18.10;99.90
26583;DHT22;14230;45.382;10.998;2023-04-03T08:26:28;18.30;99.90
26583;DHT22;14230;45.382;10.998;2023-04-03T08:28:56;18.50;99.90
26583;DHT22;14230;45.382;10.998;2023-04-03T08:31:23;18.50;99.90
26583;DHT22;14230;45.382;10.998;2023-04-03T08:33:51;18.50;99.90
26583;DHT22;14230;45.382;10.998;2023-04-03T08:36:22;19.20;99.90
26583;DHT22;14230;45.382;10.998;2023-04-03T08:38:53;19.10;99.90
26583;DHT22;14230;45.382;10.998;2023-04-03T08:41:42;18.80;99.90
26583;DHT22;14230;45.382;10.998;2023-04-03T08:49:42;19.20;99.90
26583;DHT22;14230;45.382;10.998;2023-04-03T08:52:46;19.20;99.90
26583;DHT22;14230;45.382;10.998;2023-04-03T08:55:25;19.30;99.90
26583;DHT22;14230;45.382;10.998;2023-04-03T09:00:43;19.80;99.90
26583;DHT22;14230;45.382;10.998;2023-04-03T09:03:14;19.90;99.90
26583;DHT22;14230;45.382;10.998;2023-04-03T09:05:53;20.40;99.90
26583;DHT22;14230;45.382;10.998;2023-04-03T09:16:55;19.80;99.90
26583;DHT22;14230;45.382;10.998;2023-04-03T09:22:09;19.50;99.90
26583;DHT22;14230;45.382;10.998;2023-04-03T09:24:39;20.00;99.90
26583;DHT22;14230;45.382;10.998;2023-04-03T09:27:11;19.60;99.90
26583;DHT22;14230;45.382;10.998;2023-04-03T09:29:40;18.40;99.90
26583;DHT22;14230;45.382;10.998;2023-04-03T09:32:29;18.70;99.90
26583;DHT22;14230;45.382;10.998;2023-04-03T09:35:34;19.20;99.90
26583;DHT22;14230;45.382;10.998;2023-04-03T09:40:42;19.10;99.90
26583;DHT22;14230;45.382;10.998;2023-04-03T09:43:22;19.40;99.90
26583;DHT22;14230;45.382;10.998;2023-04-03T09:45:51;20.10;99.90
26583;DHT22;14230;45.382;10.998;2023-04-03T09:48:23;20.20;99.90
26583;DHT22;14230;45.382;10.998;2023-04-03T09:53:41;19.10;99.90
26583;DHT22;14230;45.382;10.998;2023-04-03T09:58:48;20.10;99.90
26583;DHT22;14230;45.382;10.998;2023-04-03T10:04:03;19.70;99.90
26583;DHT22;14230;45.382;10.998;2023-04-03T10:06:33;19.80;99.90
26583;DHT22;14230;45.382;10.998;2023-04-03T10:09:05;19.20;99.90
26583;DHT22;14230;45.382;10.998;2023-04-03T10:11:33;18.50;99.90
26583;DHT22;14230;45.382;10.998;2023-04-03T10:14:02;17.50;99.90
26583;DHT22;14230;45.382;10.998;2023-04-03T10:16:42;16.90;99.90
26583;DHT22;14230;45.382;10.998;2023-04-03T10:19:23;16.20;99.90
26583;DHT22;14230;45.382;10.998;2023-04-03T10:22:06;16.20;99.90
26583;DHT22;14230;45.382;10.998;2023-04-03T10:27:32;17.60;99.90
26583;DHT22;14230;45.382;10.998;2023-04-03T10:35:57;15.80;99.90
26583;DHT22;14230;45.382;10.998;2023-04-03T10:41:54;16.80;99.90
26583;DHT22;14230;45.382;10.998;2023-04-03T10:53:01;16.00;99.90
26583;DHT22;14230;45.382;10.998;2023-04-03T10:58:31;15.70;99.90
26583;DHT22;14230;45.382;10.998;2023-04-03T11:01:23;16.10;99.90
26583;DHT22;14230;45.382;10.998;2023-04-03T11:03:54;16.50;99.90
26583;DHT22;14230;45.382;10.998;2023-04-03T11:06:26;16.10;99.90
26583;DHT22;14230;45.382;10.998;2023-04-03T11:09:02;15.80;99.90
26583;DHT22;14230;45.382;10.998;2023-04-03T11:11:36;15.60;99.90
26583;DHT22;14230;45.382;10.998;2023-04-03T11:16:50;15.60;99.90
26583;DHT22;14230;45.382;10.998;2023-04-03T11:19:25;15.60;99.90
26583;DHT22;14230;45.382;10.998;2023-04-03T11:22:00;15.50;99.90
26583;DHT22;14230;45.382;10.998;2023-04-03T11:24:31;15.80;99.90
26583;DHT22;14230;45.382;10.998;2023-04-03T11:27:00;16.00;99.90
26583;DHT22;14230;45.382;10.998;2023-04-03T11:29:39;16.40;99.90
26583;DHT22;14230;45.382;10.998;2023-04-03T11:35:15;16.00;99.90
26583;DHT22;14230;45.382;10.998;2023-04-03T11:37:50;15.90;99.90
26583;DHT22;14230;45.382;10.998;2023-04-03T11:40:25;15.80;99.90
26583;DHT22;14230;45.382;10.998;2023-04-03T11:45:59;15.40;99.90
26583;DHT22;14230;45.382;10.998;2023-04-03T11:51:37;15.20;99.90
26583;DHT22;14230;45.382;10.998;2023-04-03T11:53:48;15.30;99.90
26583;DHT22;14230;45.382;10.998;2023-04-03T12:01:51;15.20;99.90
26583;DHT22;14230;45.382;10.998;2023-04-03T12:04:24;15.30;99.90
26583;DHT22;14230;45.382;10.998;2023-04-03T12:07:01;15.40;99.90
26583;DHT22;14230;45.382;10.998;2023-04-03T12:09:56;15.40;99.90
26583;DHT22;14230;45.382;10.998;2023-04-03T12:14:51;15.20;99.90
26583;DHT22;14230;45.382;10.998;2023-04-03T12:17:27;15.20;99.90
26583;DHT22;14230;45.382;10.998;2023-04-03T12:19:56;15.10;99.90
26583;DHT22;14230;45.382;10.998;2023-04-03T12:22:23;14.90;99.90
26583;DHT22;14230;45.382;10.998;2023-04-03T12:24:52;14.90;99.90
26583;DHT22;14230;45.382;10.998;2023-04-03T12:27:38;14.90;99.90
26583;DHT22;14230;45.382;10.998;2023-04-03T12:30:19;14.90;99.90
26583;DHT22;14230;45.382;10.998;2023-04-03T12:33:02;15.00;99.90
26583;DHT22;14230;45.382;10.998;2023-04-03T12:36:07;15.20;99.90
26583;DHT22;14230;45.382;10.998;2023-04-03T12:41:35;15.80;99.90
26583;DHT22;14230;45.382;10.998;2023-04-03T12:44:26;15.70;99.90
26583;DHT22;14230;45.382;10.998;2023-04-03T12:47:00;15.90;99.90
26583;DHT22;14230;45.382;10.998;2023-04-03T12:49:37;16.00;99.90
26583;DHT22;14230;45.382;10.998;2023-04-03T12:53:00;16.20;99.90
26583;DHT22;14230;45.382;10.998;2023-04-03T12:55:18;16.10;99.90
26583;DHT22;14230;45.382;10.998;2023-04-03T12:57:46;15.80;99.90
26583;DHT22;14230;45.382;10.998;2023-04-03T13:00:35;15.80;99.90
26583;DHT22;14230;45.382;10.998;2023-04-03T13:03:07;15.70;99.90
26583;DHT22;14230;45.382;10.998;2023-04-03T13:05:46;15.40;99.90
26583;DHT22;14230;45.382;10.998;2023-04-03T13:08:22;15.20;99.90
26583;DHT22;14230;45.382;10.998;2023-04-03T13:11:02;15.20;99.90
26583;DHT22;14230;45.382;10.998;2023-04-03T13:13:32;15.30;99.90
26583;DHT22;14230;45.382;10.998;2023-04-03T13:16:08;15.40;99.90
26583;DHT22;14230;45.382;10.998;2023-04-03T13:18:38;15.30;99.90
26583;DHT22;14230;45.382;10.998;2023-04-03T13:21:06;15.40;99.90
26583;DHT22;14230;45.382;10.998;2023-04-03T13:23:36;15.50;99.90
26583;DHT22;14230;45.382;10.998;2023-04-03T13:26:06;15.50;99.90
26583;DHT22;14230;45.382;10.998;2023-04-03T13:28:35;15.30;99.90
26583;DHT22;14230;45.382;10.998;2023-04-03T13:31:28;15.10;99.90
26583;DHT22;14230;45.382;10.998;2023-04-03T13:36:39;15.30;99.90
26583;DHT22;14230;45.382;10.998;2023-04-03T13:41:39;15.20;99.90
26583;DHT22;14230;45.382;10.998;2023-04-03T13:46:55;15.00;99.90
26583;DHT22;14230;45.382;10.998;2023-04-03T13:51:55;14.80;99.90
26583;DHT22;14230;45.382;10.998;2023-04-03T13:54:38;14.80;99.90
26583;DHT22;14230;45.382;10.998;2023-04-03T13:57:15;14.80;99.90
26583;DHT22;14230;45.382;10.998;2023-04-03T13:59:43;14.90;99.90
26583;DHT22;14230;45.382;10.998;2023-04-03T14:02:30;14.80;99.90
26583;DHT22;14230;45.382;10.998;2023-04-03T14:05:00;14.80;99.90
26583;DHT22;14230;45.382;10.998;2023-04-03T14:07:29;14.80;99.90
26583;DHT22;14230;45.382;10.998;2023-04-03T14:09:58;14.90;99.90
26583;DHT22;14230;45.382;10.998;2023-04-03T14:12:46;15.00;99.90
26583;DHT22;14230;45.382;10.998;2023-04-03T14:15:26;15.00;99.90
26583;DHT22;14230;45.382;10.998;2023-04-03T14:17:55;15.10;99.90
26583;DHT22;14230;45.382;10.998;2023-04-03T14:20:26;15.10;99.90
26583;DHT22;14230;45.382;10.998;2023-04-03T14:22:54;15.10;99.90
26583;DHT22;14230;45.382;10.998;2023-04-03T14:25:22;15.20;99.90
26583;DHT22;14230;45.382;10.998;2023-04-03T14:27:53;15.20;99.90
26583;DHT22;14230;45.382;10.998;2023-04-03T14:30:25;15.30;99.90
26583;DHT22;14230;45.382;10.998;2023-04-03T14:32:54;15.40;99.90
26583;DHT22;14230;45.382;10.998;2023-04-03T14:35:22;15.30;99.90
26583;DHT22;14230;45.382;10.998;2023-04-03T14:37:51;15.20;99.90
26583;DHT22;14230;45.382;10.998;2023-04-03T14:40:23;15.30;99.90
26583;DHT22;14230;45.382;10.998;2023-04-03T14:42:51;15.30;99.90
26583;DHT22;14230;45.382;10.998;2023-04-03T14:45:23;15.30;99.90
26583;DHT22;14230;45.382;10.998;2023-04-03T14:47:52;15.30;99.90
26583;DHT22;14230;45.382;10.998;2023-04-03T14:50:23;15.30;99.90
26583;DHT22;14230;45.382;10.998;2023-04-03T14:52:55;15.30;99.90
26583;DHT22;14230;45.382;10.998;2023-04-03T14:55:24;15.20;99.90
26583;DHT22;14230;45.382;10.998;2023-04-03T14:57:52;15.30;99.90
26583;DHT22;14230;45.382;10.998;2023-04-03T15:00:21;15.30;99.90
26583;DHT22;14230;45.382;10.998;2023-04-03T15:02:49;15.20;99.90
26583;DHT22;14230;45.382;10.998;2023-04-03T15:05:17;15.30;99.90
26583;DHT22;14230;45.382;10.998;2023-04-03T15:07:53;15.30;99.90
26583;DHT22;14230;45.382;10.998;2023-04-03T15:12:51;15.30;99.90
26583;DHT22;14230;45.382;10.998;2023-04-03T15:15:20;15.30;99.90
26583;DHT22;14230;45.382;10.998;2023-04-03T15:17:52;15.30;99.90
26583;DHT22;14230;45.382;10.998;2023-04-03T15:20:26;15.10;99.90
26583;DHT22;14230;45.382;10.998;2023-04-03T15:22:55;15.10;99.90
26583;DHT22;14230;45.382;10.998;2023-04-03T15:25:24;15.00;99.90
26583;DHT22;14230;45.382;10.998;2023-04-03T15:27:56;15.10;99.90
26583;DHT22;14230;45.382;10.998;2023-04-03T15:30:24;15.00;99.90
26583;DHT22;14230;45.382;10.998;2023-04-03T15:32:51;15.00;99.90
26583;DHT22;14230;45.382;10.998;2023-04-03T15:35:20;15.00;99.90
26583;DHT22;14230;45.382;10.998;2023-04-03T15:37:48;15.00;99.90
26583;DHT22;14230;45.382;10.998;2023-04-03T15:40:16;14.90;99.90
26583;DHT22;14230;45.382;10.998;2023-04-03T15:42:43;14.80;99.90
26583;DHT22;14230;45.382;10.998;2023-04-03T15:45:11;14.90;99.90
26583;DHT22;14230;45.382;10.998;2023-04-03T15:47:38;14.90;99.90
26583;DHT22;14230;45.382;10.998;2023-04-03T15:50:06;14.90;99.90
26583;DHT22;14230;45.382;10.998;2023-04-03T15:52:35;15.00;99.90
26583;DHT22;14230;45.382;10.998;2023-04-03T15:55:03;14.90;99.90
26583;DHT22;14230;45.382;10.998;2023-04-03T15:57:31;14.90;99.90
26583;DHT22;14230;45.382;10.998;2023-04-03T16:00:03;14.80;99.90
26583;DHT22;14230;45.382;10.998;2023-04-03T16:02:33;14.90;99.90
26583;DHT22;14230;45.382;10.998;2023-04-03T16:05:01;15.00;99.90
26583;DHT22;14230;45.382;10.998;2023-04-03T16:07:28;15.10;99.90
26583;DHT22;14230;45.382;10.998;2023-04-03T16:09:56;15.10;99.90
26583;DHT22;14230;45.382;10.998;2023-04-03T16:12:24;15.00;99.90
26583;DHT22;14230;45.382;10.998;2023-04-03T16:14:51;15.00;99.90
26583;DHT22;14230;45.382;10.998;2023-04-03T16:17:18;14.70;99.90
26583;DHT22;14230;45.382;10.998;2023-04-03T16:19:46;14.60;99.90
26583;DHT22;14230;45.382;10.998;2023-04-03T16:22:14;14.40;99.90
26583;DHT22;14230;45.382;10.998;2023-04-03T16:24:41;14.30;99.90
26583;DHT22;14230;45.382;10.998;2023-04-03T16:27:09;14.30;99.90
26583;DHT22;14230;45.382;10.998;2023-04-03T16:29:36;14.30;99.90
26583;DHT22;14230;45.382;10.998;2023-04-03T16:32:04;14.20;99.90
26583;DHT22;14230;45.382;10.998;2023-04-03T16:34:31;14.20;99.90
26583;DHT22;14230;45.382;10.998;2023-04-03T16:37:00;14.20;99.90
26583;DHT22;14230;45.382;10.998;2023-04-03T16:39:27;14.10;99.90
26583;DHT22;14230;45.382;10.998;2023-04-03T16:41:55;14.00;99.90
26583;DHT22;14230;45.382;10.998;2023-04-03T16:44:22;14.00;99.90
26583;DHT22;14230;45.382;10.998;2023-04-03T16:46:50;14.00;99.90
26583;DHT22;14230;45.382;10.998;2023-04-03T16:49:17;13.90;99.90
26583;DHT22;14230;45.382;10.998;2023-04-03T16:51:45;13.80;99.90
26583;DHT22;14230;45.382;10.998;2023-04-03T16:54:12;13.80;99.90
26583;DHT22;14230;45.382;10.998;2023-04-03T16:56:40;13.70;99.90
26583;DHT22;14230;45.382;10.998;2023-04-03T16:59:08;13.60;99.90
26583;DHT22;14230;45.382;10.998;2023-04-03T17:01:35;13.50;99.90
26583;DHT22;14230;45.382;10.998;2023-04-03T17:04:03;13.50;99.90
26583;DHT22;14230;45.382;10.998;2023-04-03T17:06:30;13.40;99.90
26583;DHT22;14230;45.382;10.998;2023-04-03T17:08:58;13.40;99.90
26583;DHT22;14230;45.382;10.998;2023-04-03T17:11:29;13.30;99.90
26583;DHT22;14230;45.382;10.998;2023-04-03T17:13:57;13.20;99.90
26583;DHT22;14230;45.382;10.998;2023-04-03T17:16:25;13.10;99.90